Time;durP1;ratioP1;P1;durP2;ratioP2;P2;SDS_P1;SDS_P2;PMS_P1;PMS_P2;Temp;Humidity;BMP_temperature;BMP_pressure;BME280_temperature;BME280_humidity;BME280_pressure;Samples;Min_cycle;Max_cycle;Signal;HPM_P1;HPM_P2
2023/07/16 00:04:11;;;;;;;8.45;4.60;;;;;;;22.50;67.52;100012.41;10331367;28;20061;-68
2023/07/16 00:09:12;;;;;;;8.27;4.25;;;;;;;22.53;67.35;100032.75;10331414;28;20042;-67
2023/07/16 00:14:13;;;;;;;6.53;4.25;;;;;;;22.29;67.39;99989.72;10331987;28;20125;-67
2023/07/16 00:19:14;;;;;;;9.07;4.20;;;;;;;22.56;67.48;100034.94;10331580;28;20133;-67
2023/07/16 00:24:15;;;;;;;7.28;4.15;;;;;;;22.40;67.47;100004.19;10330643;28;20517;-67
2023/07/16 00:29:16;;;;;;;7.38;4.32;;;;;;;22.42;67.55;100025.59;10331142;28;20127;-68
2023/07/16 00:34:17;;;;;;;8.93;4.90;;;;;;;22.42;68.49;100033.72;10330446;28;20559;-68
2023/07/16 00:39:17;;;;;;;9.60;4.20;;;;;;;22.32;68.04;100029.81;10330942;28;20038;-67
2023/07/16 00:44:18;;;;;;;6.95;4.45;;;;;;;22.27;68.17;100034.34;10330228;28;20070;-67
2023/07/16 00:49:19;;;;;;;14.60;4.95;;;;;;;22.16;68.44;100040.66;10330001;28;20046;-67
2023/07/16 00:54:20;;;;;;;10.38;4.50;;;;;;;21.94;69.31;100025.25;10329715;28;20042;-67
2023/07/16 00:59:21;;;;;;;6.80;4.13;;;;;;;21.83;69.70;100031.59;10330713;28;20563;-67
2023/07/16 01:04:22;;;;;;;11.75;4.60;;;;;;;21.25;70.11;99960.75;10328417;28;20099;-66
2023/07/16 01:09:23;;;;;;;7.72;4.65;;;;;;;21.63;70.69;100037.56;10329590;28;20050;-67
2023/07/16 01:14:24;;;;;;;7.20;4.63;;;;;;;21.46;71.41;100010.53;10329470;28;20125;-67
2023/07/16 01:19:25;;;;;;;13.00;5.75;;;;;;;21.71;71.82;100045.22;10329640;28;20034;-67
2023/07/16 01:24:32;;;;;;;9.90;4.82;;;;;;;21.73;71.88;100042.28;10329917;28;20050;-67
2023/07/16 01:29:36;;;;;;;7.50;4.70;;;;;;;21.75;72.33;100043.66;10328709;28;20047;-67
2023/07/16 01:34:38;;;;;;;7.07;4.95;;;;;;;21.50;71.76;100016.25;10329086;28;20049;-67
2023/07/16 01:39:39;;;;;;;8.95;5.10;;;;;;;21.73;71.92;100058.50;10339504;28;20054;-67
2023/07/16 01:44:40;;;;;;;8.52;4.78;;;;;;;21.35;71.63;99990.59;10365931;28;20133;-67
2023/07/16 01:49:44;;;;;;;7.95;5.18;;;;;;;21.72;71.53;100059.53;10369372;28;20191;-67
2023/07/16 01:54:45;;;;;;;8.82;5.00;;;;;;;21.72;71.77;100060.38;10368400;28;20644;-67
2023/07/16 01:59:46;;;;;;;30.63;6.03;;;;;;;21.75;72.02;100062.59;10368902;28;20042;-67
2023/07/16 02:04:47;;;;;;;13.38;5.13;;;;;;;21.78;71.66;100070.22;10368928;28;20050;-68
2023/07/16 02:09:48;;;;;;;8.85;4.75;;;;;;;21.74;71.75;100060.94;10368712;28;20038;-67
2023/07/16 02:14:48;;;;;;;7.97;4.80;;;;;;;20.84;71.88;99916.91;10345626;28;20141;-67
2023/07/16 02:19:49;;;;;;;8.07;4.82;;;;;;;21.79;71.61;100073.72;10354436;28;20073;-68
2023/07/16 02:24:50;;;;;;;15.52;4.93;;;;;;;21.77;71.66;100079.38;10359422;28;20052;-67
2023/07/16 02:29:50;;;;;;;6.75;4.85;;;;;;;21.74;71.60;100055.53;10368452;28;20092;-67
2023/07/16 02:34:51;;;;;;;11.32;4.97;;;;;;;21.85;71.35;100051.91;10367641;28;20060;-66
2023/07/16 02:39:52;;;;;;;8.63;4.75;;;;;;;22.20;70.68;100053.47;10351669;28;20064;-67
2023/07/16 02:44:53;;;;;;;9.02;4.45;;;;;;;23.04;69.37;100073.91;10331499;28;20057;-67
2023/07/16 02:49:54;;;;;;;9.10;4.63;;;;;;;23.48;67.09;99989.66;10360680;28;20042;-67
2023/07/16 02:54:54;;;;;;;6.60;4.60;;;;;;;24.09;64.59;100019.84;10366553;28;20046;-68
2023/07/16 02:59:55;;;;;;;5.38;4.05;;;;;;;24.52;64.16;100083.00;10367606;28;20033;-68
2023/07/16 03:04:56;;;;;;;11.05;4.70;;;;;;;24.47;63.01;100028.72;10367094;28;20041;-67
2023/07/16 03:09:57;;;;;;;11.98;4.53;;;;;;;25.31;60.46;100025.78;10366998;28;20030;-68
2023/07/16 03:14:57;;;;;;;18.00;4.97;;;;;;;26.64;58.26;100097.03;10366516;28;20408;-68
2023/07/16 03:19:58;;;;;;;5.65;4.50;;;;;;;26.50;56.51;100017.00;10358140;28;20449;-67
2023/07/16 03:24:59;;;;;;;7.75;4.20;;;;;;;26.38;57.71;100104.47;10359592;28;20144;-67
2023/07/16 03:30:00;;;;;;;8.85;4.68;;;;;;;25.42;59.29;100107.09;10356666;28;20458;-69
2023/07/16 03:35:01;;;;;;;6.35;4.28;;;;;;;25.62;58.23;100041.00;10377959;28;20041;-68
2023/07/16 03:40:16;;;;;;;7.70;4.28;;;;;;;27.35;55.64;100119.50;10378808;28;20141;-69
2023/07/16 03:45:16;;;;;;;6.15;4.57;;;;;;;27.85;54.47;100114.69;10379236;28;20053;-69
2023/07/16 03:50:17;;;;;;;11.88;5.00;;;;;;;28.35;52.77;100096.13;10379477;28;20520;-69
2023/07/16 03:55:18;;;;;;;9.15;4.65;;;;;;;28.58;51.92;100095.28;10379317;28;20071;-69
2023/07/16 04:00:19;;;;;;;7.50;4.85;;;;;;;28.37;51.00;100052.94;10379020;28;20061;-68
2023/07/16 04:05:20;;;;;;;7.97;4.38;;;;;;;28.53;51.10;100102.75;10356796;28;20051;-68
2023/07/16 04:10:21;;;;;;;8.65;4.38;;;;;;;28.58;49.77;100045.31;10352426;28;20038;-69
2023/07/16 04:15:21;;;;;;;8.95;4.60;;;;;;;28.95;48.30;100052.66;10336761;28;20133;-69
2023/07/16 04:20:22;;;;;;;21.38;4.90;;;;;;;29.91;47.94;100120.56;10338473;28;20100;-68
2023/07/16 04:25:23;;;;;;;10.50;3.90;;;;;;;30.27;46.88;100100.72;10337235;28;20481;-70
2023/07/16 04:30:24;;;;;;;6.18;3.97;;;;;;;30.26;45.76;100112.81;10372481;28;20153;-70
2023/07/16 04:35:25;;;;;;;8.75;4.53;;;;;;;30.36;45.21;100107.09;10377476;28;20505;-69
2023/07/16 04:40:27;;;;;;;6.07;3.72;;;;;;;30.63;44.59;100114.50;10373108;28;20050;-69
2023/07/16 04:45:27;;;;;;;5.87;3.87;;;;;;;30.44;44.47;100103.66;10371012;28;20038;-69
2023/07/16 04:50:28;;;;;;;11.52;4.07;;;;;;;29.87;44.70;100039.34;10350322;28;20505;-69
2023/07/16 04:55:29;;;;;;;5.88;3.70;;;;;;;29.99;44.73;100040.44;10335235;28;20095;-68
2023/07/16 05:00:34;;;;;;;11.18;3.90;;;;;;;29.95;44.87;100118.06;10415159;28;20050;-69
2023/07/16 05:05:36;;;;;;;5.85;3.53;;;;;;;29.66;44.46;100107.34;10338640;28;20133;-70
2023/07/16 05:10:36;;;;;;;12.60;3.75;;;;;;;29.78;44.18;100096.72;10348602;28;20133;-68
2023/07/16 05:15:37;;;;;;;7.47;3.65;;;;;;;29.27;44.22;100040.94;10329376;28;20546;-68
2023/07/16 05:20:38;;;;;;;5.63;3.38;;;;;;;28.88;44.68;100102.25;10366660;28;20168;-70
2023/07/16 05:25:39;;;;;;;4.40;2.90;;;;;;;28.05;45.25;100032.56;10337735;28;20039;-68
2023/07/16 05:30:40;;;;;;;7.10;3.40;;;;;;;28.09;46.37;100087.41;10329655;28;20070;-68
2023/07/16 05:35:41;;;;;;;7.40;3.35;;;;;;;27.92;46.55;100079.69;10344037;28;20046;-69
2023/07/16 05:40:41;;;;;;;3.58;2.67;;;;;;;27.43;45.84;100007.03;10362656;28;20042;-69
2023/07/16 05:45:46;;;;;;;5.35;2.63;;;;;;;27.96;45.30;100099.84;10351904;28;20045;-71
2023/07/16 05:50:47;;;;;;;5.20;3.20;;;;;;;27.76;45.41;100093.47;10350561;28;20034;-69
2023/07/16 05:55:49;;;;;;;3.88;2.83;;;;;;;27.23;44.97;100035.31;10339420;28;20054;-71
2023/07/16 06:00:50;;;;;;;5.00;2.55;;;;;;;27.77;45.07;100076.00;10346781;28;20042;-69
2023/07/16 06:05:51;;;;;;;4.82;2.95;;;;;;;27.28;45.34;99958.91;10339843;28;20042;-70
2023/07/16 06:10:52;;;;;;;5.63;2.97;;;;;;;28.37;45.51;100088.44;10348894;28;20050;-69
2023/07/16 06:15:52;;;;;;;8.90;2.88;;;;;;;28.36;44.14;100056.75;10352924;28;20560;-70
2023/07/16 06:20:55;;;;;;;8.27;3.30;;;;;;;28.36;44.33;100079.44;10357083;28;20075;-70
2023/07/16 06:25:56;;;;;;;8.40;3.00;;;;;;;28.02;43.92;100035.06;10344186;28;20041;-72
2023/07/16 06:30:57;;;;;;;4.07;2.60;;;;;;;28.50;43.41;100076.81;10351446;28;20061;-70
2023/07/16 06:35:58;;;;;;;6.75;2.83;;;;;;;28.58;42.71;100086.28;10339162;28;20042;-71
2023/07/16 06:40:58;;;;;;;7.85;2.72;;;;;;;28.82;42.94;100069.81;10340451;28;20046;-71
2023/07/16 06:45:59;;;;;;;5.55;2.85;;;;;;;29.19;42.72;100076.38;10325348;28;20087;-68
2023/07/16 06:51:00;;;;;;;6.78;2.75;;;;;;;29.47;42.46;100060.88;10322039;28;20068;-69
2023/07/16 06:56:01;;;;;;;5.60;2.88;;;;;;;29.22;41.41;100057.44;10330133;28;20065;-69
2023/07/16 07:01:01;;;;;;;6.53;2.60;;;;;;;28.56;42.30;99996.38;10347027;28;20073;-67
2023/07/16 07:06:06;;;;;;;3.42;2.30;;;;;;;28.42;41.72;100006.47;10352141;28;20046;-68
2023/07/16 07:11:06;;;;;;;4.45;2.30;;;;;;;28.40;40.99;99975.84;10351031;28;20562;-68
2023/07/16 07:16:07;;;;;;;5.15;2.10;;;;;;;29.04;40.12;100039.97;10342638;28;20099;-70
2023/07/16 07:21:08;;;;;;;6.70;1.92;;;;;;;28.35;39.84;99968.53;10326151;28;20521;-70
2023/07/16 07:26:09;;;;;;;4.20;1.88;;;;;;;28.68;39.02;100018.63;10352896;28;20497;-71
2023/07/16 07:31:10;;;;;;;3.88;2.17;;;;;;;29.25;38.67;100050.56;10364262;28;20054;-73
2023/07/16 07:36:11;;;;;;;6.00;2.03;;;;;;;29.18;38.04;99984.50;10341411;28;20057;-70
2023/07/16 07:41:12;;;;;;;4.13;2.08;;;;;;;29.28;37.63;99989.78;10346026;28;20092;-71
2023/07/16 07:46:13;;;;;;;5.20;2.20;;;;;;;29.83;37.61;100036.41;10364446;28;20050;-67
2023/07/16 07:51:14;;;;;;;7.13;2.40;;;;;;;29.51;37.60;100034.50;10354744;28;20038;-69
2023/07/16 07:56:14;;;;;;;8.55;2.20;;;;;;;29.87;38.21;100031.13;10351729;28;20053;-71
2023/07/16 08:01:15;;;;;;;8.82;2.15;;;;;;;29.77;37.64;100021.19;10351449;28;20042;-71
2023/07/16 08:06:16;;;;;;;8.95;4.85;;;;;;;29.13;37.88;99947.91;10356122;28;20046;-71
2023/07/16 08:11:16;;;;;;;8.00;2.50;;;;;;;29.28;37.30;100028.06;10356225;28;20068;-69
2023/07/16 08:16:17;;;;;;;4.80;2.65;;;;;;;29.28;37.23;99987.03;10368417;28;20493;-70
2023/07/16 08:21:19;;;;;;;27.27;21.38;;;;;;;29.44;36.41;99968.44;10370117;28;20459;-70
2023/07/16 08:26:20;;;;;;;22.83;12.27;;;;;;;29.75;36.28;100004.25;10362592;28;20125;-69
2023/07/16 08:31:21;;;;;;;12.68;7.60;;;;;;;29.70;36.18;100004.34;10351713;28;20458;-70
2023/07/16 08:36:22;;;;;;;19.95;14.45;;;;;;;29.61;36.65;99998.72;10353534;28;20049;-67
2023/07/16 08:41:22;;;;;;;9.30;4.38;;;;;;;29.80;36.36;99963.09;10368912;28;20152;-67
2023/07/16 08:46:23;;;;;;;7.47;2.70;;;;;;;30.09;35.87;99992.03;10371002;28;20086;-67
2023/07/16 08:51:26;;;;;;;6.68;2.40;;;;;;;30.17;35.32;99996.81;10370931;28;20034;-67
2023/07/16 08:56:27;;;;;;;8.45;2.67;;;;;;;30.41;35.54;99991.91;10368981;28;20053;-67
2023/07/16 09:01:28;;;;;;;5.03;1.85;;;;;;;30.27;35.03;99987.56;10335853;28;20486;-68
2023/07/16 09:06:28;;;;;;;3.65;1.95;;;;;;;29.94;35.60;99919.25;10365216;28;20046;-68
2023/07/16 09:11:29;;;;;;;4.10;2.10;;;;;;;30.13;34.53;99913.63;10368942;28;20038;-66
2023/07/16 09:21:40;;;;;;;3.90;1.90;;;;;;;30.54;33.92;99959.28;10528398;22;20421;-70
2023/07/16 09:26:52;;;;;;;6.53;2.00;;;;;;;29.87;34.95;99886.81;10457720;28;20041;-67
2023/07/16 09:31:56;;;;;;;5.45;2.25;;;;;;;29.82;34.44;99905.28;10452076;28;20458;-70
2023/07/16 09:36:58;;;;;;;5.70;2.00;;;;;;;29.83;34.47;99890.47;10453743;28;20048;-68
2023/07/16 09:41:59;;;;;;;5.32;1.85;;;;;;;29.75;33.51;99954.97;10456400;28;20037;-64
2023/07/16 09:47:00;;;;;;;4.72;1.92;;;;;;;29.90;33.04;99951.09;10457699;28;20052;-62
2023/07/16 09:52:02;;;;;;;4.20;2.00;;;;;;;30.37;31.98;99957.22;10457427;28;20377;-60
2023/07/16 09:57:06;;;;;;;9.75;2.10;;;;;;;30.32;32.55;99951.84;10471963;28;20040;-60
2023/07/16 10:02:07;;;;;;;3.72;1.52;;;;;;;30.82;31.00;99929.84;10478081;28;20514;-60
2023/07/16 10:07:22;;;;;;;8.45;1.40;;;;;;;30.77;28.44;99886.06;10467966;28;20045;-60
2023/07/16 10:12:25;;;;;;;4.40;1.52;;;;;;;31.01;29.42;99910.41;10440553;28;20067;-59
2023/07/16 10:17:26;;;;;;;;;;;;;;;31.47;30.09;99931.97;10451590;28;20057;-60
2023/07/16 10:22:46;;;;;;;2.88;1.48;;;;;;;31.25;28.61;99910.84;10408422;28;20399;-60
2023/07/16 10:27:50;;;;;;;6.57;1.60;;;;;;;31.35;28.56;99896.06;10409367;28;20087;-60
2023/07/16 10:32:54;;;;;;;6.47;1.88;;;;;;;31.11;29.20;99902.75;10412890;28;20041;-61
2023/07/16 10:37:56;;;;;;;6.15;1.60;;;;;;;30.92;29.64;99924.88;10427018;28;20104;-60
2023/07/16 10:42:57;;;;;;;16.63;2.10;;;;;;;30.92;30.24;99919.41;10412963;28;20045;-60
2023/07/16 10:47:57;;;;;;;3.58;1.58;;;;;;;30.83;30.33;99912.25;10413539;28;20045;-60
2023/07/16 10:52:58;;;;;;;9.15;1.90;;;;;;;30.65;30.23;99909.38;10412599;28;20105;-59
2023/07/16 10:58:05;;;;;;;3.58;1.50;;;;;;;30.90;29.33;99915.34;10412805;28;20049;-60
2023/07/16 11:03:06;;;;;;;8.25;1.95;;;;;;;30.64;29.84;99917.94;10414349;28;20073;-60
2023/07/16 11:08:07;;;;;;;4.88;1.50;;;;;;;29.86;30.29;99819.47;10410278;28;20509;-60
2023/07/16 11:13:08;;;;;;;10.60;1.80;;;;;;;30.69;29.40;99906.81;10403782;28;20044;-59
2023/07/16 11:18:09;;;;;;;4.65;1.85;;;;;;;31.27;28.65;99897.63;10407639;28;20060;-58
2023/07/16 11:23:10;;;;;;;3.83;1.58;;;;;;;31.52;27.38;99904.34;10409953;28;21428;-57
2023/07/16 11:28:11;;;;;;;5.60;1.43;;;;;;;31.86;27.64;99878.09;10410940;28;20550;-58
2023/07/16 11:33:12;;;;;;;9.27;2.05;;;;;;;32.24;27.82;99888.47;10411735;28;20050;-58
2023/07/16 11:38:13;;;;;;;6.53;1.50;;;;;;;32.26;26.98;99887.00;10409829;28;20046;-59
2023/07/16 11:43:15;;;;;;;2.92;1.38;;;;;;;31.54;27.50;99833.47;10409223;28;20050;-58
2023/07/16 11:48:15;;;;;;;4.22;1.50;;;;;;;30.98;27.31;99809.56;10429919;28;20072;-58
2023/07/16 11:53:17;;;;;;;7.30;1.58;;;;;;;31.01;27.32;99872.81;10455534;28;20131;-57
2023/07/16 11:58:17;;;;;;;6.20;1.45;;;;;;;31.36;27.43;99881.22;10441322;28;20080;-58
2023/07/16 12:03:18;;;;;;;6.70;1.88;;;;;;;31.48;28.13;99881.41;10459835;28;20565;-58
2023/07/16 12:08:19;;;;;;;5.60;1.60;;;;;;;31.38;29.31;99857.81;10431515;28;20554;-61
2023/07/16 12:13:20;;;;;;;4.00;1.45;;;;;;;31.12;29.58;99887.88;10414314;28;20051;-68
2023/07/16 12:18:20;;;;;;;4.93;1.63;;;;;;;29.97;30.29;99763.34;10417996;28;20057;-69
2023/07/16 12:23:22;;;;;;;5.78;1.50;;;;;;;30.32;30.13;99862.22;10426683;28;20037;-60
2023/07/16 12:28:23;;;;;;;4.57;1.70;;;;;;;30.28;30.03;99888.66;10418286;28;20050;-57
2023/07/16 12:33:23;;;;;;;7.72;1.80;;;;;;;30.22;30.16;99892.63;10418942;28;20040;-57
2023/07/16 12:38:24;;;;;;;2.25;1.40;;;;;;;29.79;30.43;99882.06;10412120;28;20037;-58
2023/07/16 12:43:25;;;;;;;6.47;1.65;;;;;;;29.26;30.68;99822.41;10410845;28;20045;-54
2023/07/16 12:48:26;;;;;;;8.50;1.50;;;;;;;29.95;31.21;99910.72;10419417;28;20099;-55
2023/07/16 12:53:27;;;;;;;13.20;2.13;;;;;;;30.29;30.74;99894.94;10418129;28;20041;-55
2023/07/16 12:58:27;;;;;;;20.88;2.40;;;;;;;30.38;31.19;99898.53;10418007;28;20041;-51
2023/07/16 13:03:28;;;;;;;4.18;1.50;;;;;;;29.68;30.88;99894.38;10408284;28;20519;-53
2023/07/16 13:08:29;;;;;;;8.88;1.92;;;;;;;29.41;31.43;99915.13;10381444;28;20049;-56
2023/07/16 13:13:30;;;;;;;16.80;2.38;;;;;;;28.99;31.44;99856.00;10377594;28;20485;-53
2023/07/16 13:18:30;;;;;;;6.13;1.95;;;;;;;29.65;30.85;99911.41;10376192;28;20119;-51
2023/07/16 13:23:31;;;;;;;6.35;1.60;;;;;;;29.72;30.81;99841.41;10376705;28;20046;-54
2023/07/16 13:28:32;;;;;;;7.85;1.50;;;;;;;30.23;30.88;99895.03;10376219;28;20076;-55
2023/07/16 13:33:33;;;;;;;12.75;1.92;;;;;;;29.91;30.87;99851.41;10376405;28;20034;-51
2023/07/16 13:38:34;;;;;;;9.23;1.70;;;;;;;29.86;31.50;99854.28;10375893;28;20179;-51
2023/07/16 13:43:34;;;;;;;12.50;1.83;;;;;;;30.28;31.13;99898.81;10375241;28;20034;-52
2023/07/16 13:48:35;;;;;;;13.90;2.30;;;;;;;30.01;30.67;99846.50;10375564;28;20095;-51
2023/07/16 13:53:36;;;;;;;8.23;2.03;;;;;;;30.36;30.74;99895.28;10375418;28;20042;-53
2023/07/16 13:58:36;;;;;;;5.68;1.60;;;;;;;29.80;30.11;99817.97;10375176;28;20054;-54
2023/07/16 14:03:37;;;;;;;5.22;1.77;;;;;;;30.09;29.89;99888.75;10375057;28;20038;-53
2023/07/16 14:08:38;;;;;;;5.22;1.60;;;;;;;29.97;29.67;99880.28;10374432;28;20107;-55
2023/07/16 14:13:39;;;;;;;4.85;1.38;;;;;;;30.10;29.91;99886.88;10374580;28;20049;-54
2023/07/16 14:18:39;;;;;;;5.53;1.42;;;;;;;30.11;28.95;99896.69;10404538;28;20073;-55
2023/07/16 14:23:40;;;;;;;6.43;1.45;;;;;;;30.11;28.35;99899.44;10414739;28;20045;-54
2023/07/16 14:28:41;;;;;;;6.78;1.67;;;;;;;29.63;28.29;99902.66;10414606;28;20041;-55
2023/07/16 14:33:42;;;;;;;4.57;1.60;;;;;;;29.05;28.95;99913.06;10413805;28;20037;-52
2023/07/16 14:38:43;;;;;;;4.72;1.60;;;;;;;28.21;29.60;99848.31;10414558;28;20483;-52
2023/07/16 14:43:46;;;;;;;6.45;1.52;;;;;;;28.39;30.03;99933.22;10413837;28;20132;-53
2023/07/16 14:48:47;;;;;;;5.50;1.70;;;;;;;28.19;30.44;99937.91;10413641;28;20033;-53
2023/07/16 14:53:47;;;;;;;7.57;1.60;;;;;;;27.51;31.31;99861.81;10414495;28;20037;-56
2023/07/16 14:58:48;;;;;;;7.82;1.80;;;;;;;27.77;31.87;99939.53;10413383;28;20496;-50
2023/07/16 15:03:49;;;;;;;8.07;1.95;;;;;;;27.74;32.36;99951.03;10413331;28;20045;-52
2023/07/16 15:08:51;;;;;;;11.88;2.17;;;;;;;27.64;32.53;99955.78;10436980;28;20139;-55
2023/07/16 15:13:52;;;;;;;9.47;1.40;;;;;;;27.54;32.80;99962.19;10426060;28;20429;-55
2023/07/16 15:18:52;;;;;;;13.32;1.60;;;;;;;27.44;32.70;99976.75;10434252;28;20057;-55
2023/07/16 15:23:53;;;;;;;6.43;1.50;;;;;;;27.30;32.51;99976.59;10430437;28;20170;-58
2023/07/16 15:28:54;;;;;;;4.57;1.55;;;;;;;27.19;32.64;99966.94;10451923;28;20083;-55
2023/07/16 15:33:55;;;;;;;22.48;2.00;;;;;;;27.08;34.74;99974.34;10432000;28;20038;-56
2023/07/16 15:38:56;;;;;;;10.07;1.75;;;;;;;26.56;38.13;99985.91;10388293;28;20500;-52
2023/07/16 15:43:57;;;;;;;10.38;1.95;;;;;;;25.68;40.27;99933.00;10412769;28;20087;-53
2023/07/16 15:48:58;;;;;;;8.63;2.05;;;;;;;25.88;40.66;99989.25;10416643;28;20037;-55
2023/07/16 15:53:58;;;;;;;18.25;2.42;;;;;;;25.84;39.96;99993.63;10432693;28;20053;-54
2023/07/16 15:59:00;;;;;;;7.97;1.85;;;;;;;25.78;40.25;99991.97;10437810;28;20043;-54
2023/07/16 16:04:01;;;;;;;7.35;1.83;;;;;;;25.76;40.34;99997.72;10428062;28;20080;-53
2023/07/16 16:09:01;;;;;;;18.33;2.28;;;;;;;25.71;40.71;100006.69;10409693;28;20160;-55
2023/07/16 16:14:08;;;;;;;10.20;2.55;;;;;;;25.26;41.11;99955.94;10420642;28;20034;-55
2023/07/16 16:19:09;;;;;;;8.95;2.17;;;;;;;25.49;40.47;100009.75;10424110;28;20487;-54
2023/07/16 16:24:10;;;;;;;9.85;1.80;;;;;;;24.76;40.66;99908.69;10434044;28;20041;-56
2023/07/16 16:29:10;;;;;;;6.72;2.50;;;;;;;25.39;40.91;100041.56;10428992;28;20128;-55
2023/07/16 16:34:11;;;;;;;7.82;2.10;;;;;;;25.27;40.91;100053.53;10423550;28;20049;-53
2023/07/16 16:39:12;;;;;;;4.50;1.60;;;;;;;25.01;41.48;100030.97;10425432;28;20508;-51
2023/07/16 16:44:14;;;;;;;8.73;2.20;;;;;;;24.71;41.86;99998.31;10429163;28;20029;-54
2023/07/16 16:49:15;;;;;;;8.85;2.60;;;;;;;24.90;42.60;100051.06;10439998;28;20041;-54
2023/07/16 16:54:15;;;;;;;14.23;2.50;;;;;;;24.41;43.27;99999.88;10429819;28;20427;-56
2023/07/16 16:59:16;;;;;;;15.50;2.83;;;;;;;24.81;43.45;100090.72;10422353;28;20103;-53
2023/07/16 17:04:17;;;;;;;10.18;2.30;;;;;;;24.76;42.75;100102.34;10429848;28;20091;-55
2023/07/16 17:09:18;;;;;;;7.05;2.00;;;;;;;24.75;42.64;100117.03;10429748;28;20053;-55
2023/07/16 17:14:19;;;;;;;8.88;2.00;;;;;;;24.69;41.89;100123.53;10444076;28;20025;-54
2023/07/16 17:19:19;;;;;;;9.23;1.98;;;;;;;24.68;41.99;100145.53;10440777;28;20090;-53
2023/07/16 17:24:22;;;;;;;6.90;1.63;;;;;;;24.63;41.20;100165.34;10443159;28;20041;-55
2023/07/16 17:29:23;;;;;;;9.40;1.70;;;;;;;24.16;40.91;100103.72;10440410;28;20094;-53
2023/07/16 17:34:24;;;;;;;8.30;1.63;;;;;;;24.47;40.73;100169.06;10448276;28;20094;-52
2023/07/16 17:39:24;;;;;;;4.15;2.20;;;;;;;24.22;43.60;100180.59;10443518;28;20045;-53
2023/07/16 17:44:25;;;;;;;10.80;2.75;;;;;;;24.08;45.25;100215.47;10447133;28;20029;-55
2023/07/16 17:49:26;;;;;;;9.35;2.50;;;;;;;23.57;47.90;100237.56;10434196;28;20507;-55
2023/07/16 17:54:27;;;;;;;4.47;2.28;;;;;;;23.10;49.39;100219.19;10438884;28;20036;-54
2023/07/16 17:59:28;;;;;;;4.15;2.05;;;;;;;22.92;50.17;100247.38;10443075;28;20056;-54
2023/07/16 18:04:29;;;;;;;7.22;2.00;;;;;;;22.01;51.11;100112.44;10439202;28;20043;-52
2023/07/16 18:09:29;;;;;;;6.20;2.60;;;;;;;22.70;52.12;100244.66;10444507;28;20044;-53
2023/07/16 18:14:30;;;;;;;7.20;2.80;;;;;;;22.60;52.80;100257.25;10447498;28;20118;-57
2023/07/16 18:19:33;;;;;;;5.75;2.22;;;;;;;22.35;52.20;100245.00;10435522;28;20603;-56
2023/07/16 18:24:34;;;;;;;10.25;2.28;;;;;;;22.25;51.78;100256.47;10425705;28;20092;-52
2023/07/16 18:29:34;;;;;;;7.93;1.90;;;;;;;22.07;51.65;100243.97;10394864;28;20050;-55
2023/07/16 18:34:35;;;;;;;7.88;2.20;;;;;;;21.88;51.69;100243.41;10405168;28;20045;-54
2023/07/16 18:39:36;;;;;;;8.98;1.88;;;;;;;21.85;51.78;100267.44;10412904;28;20408;-53
2023/07/16 18:44:37;;;;;;;9.25;2.25;;;;;;;21.63;51.99;100237.59;10412304;28;20073;-52
2023/07/16 18:49:38;;;;;;;8.43;2.03;;;;;;;21.60;52.06;100243.47;10413446;28;20041;-51
2023/07/16 18:54:39;;;;;;;3.30;1.70;;;;;;;21.73;52.30;100270.19;10404720;28;20128;-54
2023/07/16 18:59:39;;;;;;;5.53;2.00;;;;;;;21.62;52.69;100266.47;10413412;28;20109;-51
2023/07/16 19:04:40;;;;;;;3.55;1.73;;;;;;;21.61;53.15;100258.63;10413173;28;20041;-53
2023/07/16 19:09:41;;;;;;;8.13;1.63;;;;;;;21.54;53.29;100264.19;10413436;28;20048;-55
2023/07/16 19:14:42;;;;;;;4.18;1.90;;;;;;;21.40;53.40;100244.72;10388579;28;20467;-53
2023/07/16 19:19:43;;;;;;;8.30;1.90;;;;;;;21.31;53.88;100259.66;10371960;28;20053;-54
2023/07/16 19:24:44;;;;;;;6.13;2.13;;;;;;;21.30;53.99;100263.44;10392718;28;20491;-53
2023/07/16 19:29:45;;;;;;;5.75;2.13;;;;;;;21.25;53.89;100257.91;10411726;28;20061;-52
2023/07/16 19:34:47;;;;;;;4.55;2.15;;;;;;;21.22;53.63;100263.00;10412675;28;20036;-51
2023/07/16 19:39:47;;;;;;;6.53;2.03;;;;;;;21.05;53.75;100241.31;10412990;28;20099;-52
2023/07/16 19:44:50;;;;;;;5.47;2.10;;;;;;;21.16;54.04;100270.16;10412946;28;20452;-55
2023/07/16 19:49:51;;;;;;;6.25;2.22;;;;;;;21.05;54.13;100260.22;10413003;28;20453;-51
2023/07/16 19:54:52;;;;;;;9.02;2.70;;;;;;;20.99;54.17;100253.88;10412641;28;20045;-53
2023/07/16 19:59:52;;;;;;;3.33;2.00;;;;;;;20.95;54.07;100253.53;10410212;28;20041;-49
2023/07/16 20:04:53;;;;;;;5.82;2.35;;;;;;;20.90;54.36;100266.13;10412505;28;20049;-50
2023/07/16 20:09:54;;;;;;;3.88;2.10;;;;;;;20.76;54.61;100246.69;10413025;28;20041;-53
2023/07/16 20:14:55;;;;;;;5.22;2.50;;;;;;;20.34;54.61;100187.44;10420489;28;20041;-53
2023/07/16 20:19:56;;;;;;;6.13;3.08;;;;;;;20.71;54.90;100258.16;10420399;28;20057;-51
2023/07/16 20:24:57;;;;;;;8.55;2.20;;;;;;;20.65;55.35;100247.50;10419715;28;20041;-54
2023/07/16 20:29:58;;;;;;;10.15;2.90;;;;;;;20.72;55.25;100253.59;10418474;28;20128;-54
2023/07/16 20:34:59;;;;;;;5.53;2.20;;;;;;;20.66;55.44;100249.13;10419147;28;20132;-53
2023/07/16 20:40:00;;;;;;;6.95;2.20;;;;;;;20.65;55.71;100258.31;10419186;28;20457;-54
2023/07/16 20:45:20;;;;;;;6.43;2.38;;;;;;;20.40;56.67;100234.22;10418638;28;20046;-53
2023/07/16 20:50:26;;;;;;;5.55;2.50;;;;;;;20.42;56.51;100254.50;10419333;28;20405;-52
2023/07/16 20:55:27;;;;;;;5.70;2.58;;;;;;;20.40;56.53;100255.81;10418236;28;20052;-55
2023/07/16 21:00:31;;;;;;;7.38;3.03;;;;;;;19.88;56.81;100172.06;10418676;28;20041;-54
2023/07/16 21:05:33;;;;;;;5.15;2.50;;;;;;;20.39;57.10;100254.16;10417991;28;20037;-53
2023/07/16 21:10:34;;;;;;;6.65;2.70;;;;;;;19.93;57.40;100175.72;10418577;28;20048;-55
2023/07/16 21:15:35;;;;;;;4.45;2.60;;;;;;;20.24;58.23;100224.97;10417470;28;20045;-54
2023/07/16 21:20:37;;;;;;;5.63;2.42;;;;;;;20.25;58.86;100257.13;10417452;28;20065;-53
2023/07/16 21:25:41;;;;;;;5.85;2.22;;;;;;;20.13;59.40;100250.03;10417750;28;20045;-54
2023/07/16 21:30:41;;;;;;;5.33;2.57;;;;;;;20.05;59.47;100252.03;10417723;28;20042;-53
2023/07/16 21:35:42;;;;;;;5.53;2.80;;;;;;;19.68;60.22;100175.09;10418713;28;20040;-52
2023/07/16 21:40:43;;;;;;;12.35;2.90;;;;;;;20.09;60.63;100238.91;10417062;28;20041;-53
2023/07/16 21:45:44;;;;;;;6.85;2.70;;;;;;;19.71;60.10;100174.63;10416798;28;20060;-53
2023/07/16 21:50:44;;;;;;;5.80;2.70;;;;;;;20.00;60.95;100224.94;10416186;28;20048;-53
2023/07/16 21:55:45;;;;;;;6.03;2.70;;;;;;;19.94;61.51;100227.75;10416587;28;20050;-54
2023/07/16 22:00:47;;;;;;;5.85;2.72;;;;;;;19.81;61.79;100215.31;10412239;28;20375;-53
2023/07/16 22:05:47;;;;;;;7.60;3.22;;;;;;;19.88;62.17;100216.03;10379355;28;20050;-53
2023/07/16 22:10:49;;;;;;;5.63;3.05;;;;;;;19.91;62.37;100220.94;10415342;28;20047;-53
2023/07/16 22:15:50;;;;;;;5.43;2.65;;;;;;;20.05;61.63;100222.38;10415972;28;20591;-55
2023/07/16 22:20:50;;;;;;;10.13;2.83;;;;;;;20.14;61.13;100212.06;10416062;28;20057;-53
2023/07/16 22:25:51;;;;;;;5.75;2.38;;;;;;;20.24;61.38;100214.16;10414691;28;20484;-53
2023/07/16 22:30:52;;;;;;;13.80;2.53;;;;;;;20.29;61.72;100211.59;10414590;28;20073;-53
2023/07/16 22:35:53;;;;;;;7.25;2.58;;;;;;;19.87;61.02;100147.00;10413989;28;20057;-53
2023/07/16 22:40:54;;;;;;;11.82;2.60;;;;;;;19.91;61.50;100137.38;10415155;28;20558;-54
2023/07/16 22:45:55;;;;;;;5.03;2.40;;;;;;;20.33;61.33;100207.38;10414145;28;20072;-54
2023/07/16 22:50:55;;;;;;;9.75;2.40;;;;;;;20.32;61.27;100204.91;10414556;28;20053;-53
2023/07/16 22:55:58;;;;;;;4.35;2.60;;;;;;;20.22;61.47;100195.53;10413418;28;20104;-52
2023/07/16 23:00:58;;;;;;;5.45;2.47;;;;;;;20.29;61.07;100200.81;10414171;28;20041;-53
2023/07/16 23:05:59;;;;;;;14.32;2.58;;;;;;;20.25;61.47;100199.63;10413878;28;20052;-53
2023/07/16 23:11:00;;;;;;;5.45;2.20;;;;;;;20.23;61.43;100210.66;10413227;28;20531;-52
2023/07/16 23:16:01;;;;;;;11.10;2.20;;;;;;;20.21;61.68;100199.28;10413107;28;20042;-53